Terminal Aerodrome Forecast
Issued by NWS

Home | Current Version | Previous Version | Text Only | Print | Product List | Glossary On
Versions: 1 2 3 4 5 6 7 8 9 10 11 12 13 14 15 16 17 18 19 20 21 22 23 24 25
000
FTAK31 PAFA 301307 AAA
TAFAOR
TAF AMD
PAOR 301307Z 3013/3112 00000KT P6SM BCFG VCSH BKN070 BKN090 OVC110
     FM302100 VRB03KT P6SM VCTS BKN060CB BKN100
     FM310600 VRB03KT P6SM BKN100=

USA.gov is the U.S. government's official web portal to all federal, state and local government web resources and services.